Time;durP1;ratioP1;P1;durP2;ratioP2;P2;SDS_P1;SDS_P2;PMS_P1;PMS_P2;Temp;Humidity;BMP_temperature;BMP_pressure;BME280_temperature;BME280_humidity;BME280_pressure;Samples;Min_cycle;Max_cycle;Signal;HPM_P1;HPM_P2
2024/02/28 00:00:01;;;;;;;64.13;32.30;;;4.50;99.90;;;;;;4995580;28;20199;-66
2024/02/28 00:02:27;;;;;;;64.30;32.08;;;4.60;99.90;;;;;;5037583;28;20752;-63
2024/02/28 00:04:53;;;;;;;64.22;33.15;;;4.60;99.90;;;;;;5024318;28;20196;-63
2024/02/28 00:07:19;;;;;;;60.08;31.27;;;4.70;99.90;;;;;;5024600;28;20552;-63
2024/02/28 00:09:45;;;;;;;66.45;30.40;;;4.60;99.90;;;;;;5024872;28;20196;-65
2024/02/28 00:12:10;;;;;;;59.92;29.60;;;4.60;99.90;;;;;;5024832;28;20201;-64
2024/02/28 00:14:36;;;;;;;62.70;32.03;;;4.60;99.90;;;;;;5037356;28;20187;-63
2024/02/28 00:17:02;;;;;;;67.85;33.05;;;4.50;99.90;;;;;;5024221;28;20200;-62
2024/02/28 00:19:28;;;;;;;62.35;31.58;;;4.50;99.90;;;;;;5024558;28;20200;-66
2024/02/28 00:21:54;;;;;;;71.82;34.08;;;4.50;99.90;;;;;;5024751;28;20199;-64
2024/02/28 00:24:19;;;;;;;65.28;32.72;;;4.50;99.90;;;;;;5024230;28;20667;-64
2024/02/28 00:26:45;;;;;;;75.57;33.30;;;4.50;99.90;;;;;;5037168;28;20212;-64
2024/02/28 00:29:11;;;;;;;67.03;32.70;;;4.50;99.90;;;;;;5035868;28;20263;-65
2024/02/28 00:31:36;;;;;;;72.45;33.20;;;4.50;99.90;;;;;;5038832;28;20208;-64
2024/02/28 00:34:02;;;;;;;79.32;35.78;;;4.60;99.90;;;;;;5039337;28;20192;-65
2024/02/28 00:36:28;;;;;;;82.28;34.80;;;4.60;99.90;;;;;;5024173;28;20198;-65
2024/02/28 00:38:53;;;;;;;75.93;33.28;;;4.60;99.90;;;;;;5024006;28;20302;-65
2024/02/28 00:41:19;;;;;;;75.20;33.90;;;4.60;99.90;;;;;;5024203;28;20317;-66
2024/02/28 00:43:45;;;;;;;80.45;34.60;;;4.60;99.90;;;;;;5024198;28;20226;-66
2024/02/28 00:46:12;;;;;;;78.60;36.10;;;4.60;99.90;;;;;;5023796;28;20226;-65
2024/02/28 00:48:41;;;;;;;75.07;34.80;;;4.60;99.90;;;;;;5023901;28;20288;-64
2024/02/28 00:51:08;;;;;;;70.50;33.78;;;4.60;99.90;;;;;;5023733;28;20238;-66
2024/02/28 00:53:34;;;;;;;65.93;32.10;;;4.60;99.90;;;;;;5023464;28;20192;-64
2024/02/28 00:56:00;;;;;;;62.42;32.45;;;4.60;99.90;;;;;;5023548;28;20211;-65
2024/02/28 00:58:27;;;;;;;55.03;28.85;;;4.60;99.90;;;;;;5023247;28;20188;-64
2024/02/28 01:00:53;;;;;;;54.80;29.10;;;4.70;99.90;;;;;;5024162;28;20196;-65
2024/02/28 01:03:19;;;;;;;50.92;27.50;;;4.60;99.90;;;;;;5022206;28;20196;-65
2024/02/28 01:05:46;;;;;;;52.83;28.10;;;4.60;99.90;;;;;;5022902;28;20781;-65
2024/02/28 01:08:12;;;;;;;52.30;28.00;;;4.60;99.90;;;;;;5024164;28;20659;-65
2024/02/28 01:10:38;;;;;;;47.80;26.45;;;4.60;99.90;;;;;;5023146;28;20192;-65
2024/02/28 01:13:04;;;;;;;56.10;28.83;;;4.60;99.90;;;;;;5023464;28;20199;-65
2024/02/28 01:15:29;;;;;;;52.47;28.15;;;4.70;99.90;;;;;;5022915;28;20259;-64
2024/02/28 01:17:55;;;;;;;57.83;29.48;;;4.60;99.90;;;;;;5023564;28;20179;-63
2024/02/28 01:20:21;;;;;;;53.28;29.40;;;4.60;99.90;;;;;;5023467;28;20851;-64
2024/02/28 01:22:47;;;;;;;53.22;29.23;;;4.60;99.90;;;;;;5023007;28;20203;-64
2024/02/28 01:25:13;;;;;;;53.97;29.20;;;4.60;99.90;;;;;;5023708;28;20528;-66
2024/02/28 01:27:38;;;;;;;53.38;29.52;;;4.60;99.90;;;;;;5022491;28;20199;-62
2024/02/28 01:30:05;;;;;;;60.28;29.95;;;4.60;99.90;;;;;;5022930;28;20257;-65
2024/02/28 01:32:31;;;;;;;57.78;28.42;;;4.60;99.90;;;;;;5022667;28;20211;-64
2024/02/28 01:34:57;;;;;;;53.83;29.02;;;4.60;99.90;;;;;;5022815;28;20188;-64
2024/02/28 01:37:22;;;;;;;54.50;29.40;;;4.70;99.90;;;;;;5023514;28;20188;-65
2024/02/28 01:39:48;;;;;;;56.55;29.30;;;4.60;99.90;;;;;;5037925;28;20234;-65
2024/02/28 01:42:15;;;;;;;55.33;28.70;;;4.60;99.90;;;;;;5023403;28;20247;-66
2024/02/28 01:44:45;;;;;;;50.90;26.98;;;4.60;99.90;;;;;;5022738;28;20220;-66
2024/02/28 01:47:11;;;;;;;56.70;29.35;;;4.60;99.90;;;;;;5021808;28;20219;-65
2024/02/28 01:49:37;;;;;;;60.38;29.80;;;4.60;99.90;;;;;;5022992;28;20640;-65
2024/02/28 01:52:04;;;;;;;54.35;30.33;;;4.60;99.90;;;;;;5022493;28;20196;-65
2024/02/28 01:54:31;;;;;;;57.22;28.80;;;4.60;99.90;;;;;;5037444;28;20230;-65
2024/02/28 01:56:57;;;;;;;53.72;28.58;;;4.60;99.90;;;;;;5022729;28;20633;-64
2024/02/28 01:59:25;;;;;;;54.13;30.23;;;4.60;99.90;;;;;;5022603;28;20192;-65
2024/02/28 02:01:51;;;;;;;52.92;28.55;;;4.60;99.90;;;;;;5022508;28;20198;-64
2024/02/28 02:04:17;;;;;;;57.22;29.92;;;4.60;99.90;;;;;;5022144;28;20188;-66
2024/02/28 02:06:45;;;;;;;50.88;28.95;;;4.60;99.90;;;;;;5022091;28;20214;-64
2024/02/28 02:09:11;;;;;;;54.50;29.23;;;4.60;99.90;;;;;;5023059;28;20192;-63
2024/02/28 02:11:38;;;;;;;55.90;30.15;;;4.70;99.90;;;;;;5021652;28;20184;-66
2024/02/28 02:14:04;;;;;;;55.88;29.85;;;4.60;99.90;;;;;;5022269;28;20211;-66
2024/02/28 02:16:30;;;;;;;55.53;28.73;;;4.60;99.90;;;;;;5022363;28;20200;-64
2024/02/28 02:18:55;;;;;;;53.45;28.50;;;4.60;99.90;;;;;;5022462;28;20676;-65
2024/02/28 02:21:34;;;;;;;56.42;30.67;;;4.60;99.90;;;;;;5022339;28;20584;-64
2024/02/28 02:24:00;;;;;;;56.33;30.55;;;4.60;99.90;;;;;;5022070;28;20307;-64
2024/02/28 02:26:26;;;;;;;54.28;30.05;;;4.60;99.90;;;;;;5021822;28;20261;-65
2024/02/28 02:28:51;;;;;;;54.22;29.75;;;4.60;99.90;;;;;;5021891;28;20196;-63
2024/02/28 02:31:17;;;;;;;55.42;30.23;;;4.50;99.90;;;;;;5022342;28;20192;-64
2024/02/28 02:33:43;;;;;;;51.25;28.35;;;4.50;99.90;;;;;;5022132;28;20211;-64
2024/02/28 02:36:08;;;;;;;62.65;30.05;;;4.50;99.90;;;;;;5036684;28;20238;-64
2024/02/28 02:38:34;;;;;;;55.10;29.65;;;4.60;99.90;;;;;;5021064;28;20539;-63
2024/02/28 02:41:00;;;;;;;58.35;31.10;;;4.50;99.90;;;;;;5022344;28;20928;-64
2024/02/28 02:43:25;;;;;;;54.28;30.20;;;4.60;99.90;;;;;;5021792;28;20230;-65
2024/02/28 02:45:51;;;;;;;61.63;31.65;;;4.50;99.90;;;;;;5007613;28;20350;-65
2024/02/28 02:48:17;;;;;;;55.40;30.02;;;4.50;99.90;;;;;;5021523;28;20632;-65
2024/02/28 02:50:42;;;;;;;49.03;28.83;;;4.50;99.90;;;;;;5021400;28;20200;-65
2024/02/28 02:53:10;;;;;;;54.63;29.33;;;4.50;99.90;;;;;;5019966;28;20935;-65
2024/02/28 02:55:36;;;;;;;58.60;30.48;;;4.50;99.90;;;;;;5021235;28;20225;-66
2024/02/28 02:58:02;;;;;;;58.50;30.45;;;4.50;99.90;;;;;;5021315;28;20203;-66
2024/02/28 03:00:28;;;;;;;55.58;29.67;;;4.60;99.90;;;;;;5036619;28;20672;-64
2024/02/28 03:02:54;;;;;;;50.75;29.17;;;4.60;99.90;;;;;;5021437;28;20195;-65
2024/02/28 03:05:20;;;;;;;56.85;29.60;;;4.60;99.90;;;;;;5021712;28;20246;-64
2024/02/28 03:07:45;;;;;;;56.85;29.90;;;4.60;99.90;;;;;;5021417;28;20266;-64
2024/02/28 03:10:11;;;;;;;56.22;30.30;;;4.60;99.90;;;;;;5020900;28;20184;-66
2024/02/28 03:12:37;;;;;;;54.05;29.48;;;4.50;99.90;;;;;;5017108;28;20203;-64
2024/02/28 03:15:03;;;;;;;53.30;29.08;;;4.50;99.90;;;;;;5020726;28;20191;-64
2024/02/28 03:17:29;;;;;;;56.55;29.55;;;4.50;99.90;;;;;;5020612;28;20588;-63
2024/02/28 03:19:55;;;;;;;52.97;29.42;;;4.50;99.90;;;;;;5021095;28;20211;-63
2024/02/28 03:22:21;;;;;;;54.55;29.02;;;4.50;99.90;;;;;;5020632;28;20219;-64
2024/02/28 03:24:48;;;;;;;53.75;29.05;;;4.50;99.90;;;;;;5021654;28;20226;-64
2024/02/28 03:27:14;;;;;;;55.38;30.05;;;4.60;99.90;;;;;;5020709;28;20258;-64
2024/02/28 03:29:40;;;;;;;54.63;29.70;;;4.50;99.90;;;;;;5020294;28;20210;-64
2024/02/28 03:32:06;;;;;;;56.58;29.25;;;4.50;99.90;;;;;;5021227;28;20294;-63
2024/02/28 03:34:31;;;;;;;54.90;29.70;;;4.50;99.90;;;;;;5020698;28;20188;-65
2024/02/28 03:36:57;;;;;;;55.38;30.83;;;4.50;99.90;;;;;;5021314;28;20270;-64
2024/02/28 03:39:24;;;;;;;60.42;31.60;;;4.50;99.90;;;;;;5020700;28;20242;-65
2024/02/28 03:41:49;;;;;;;65.68;32.97;;;4.50;99.90;;;;;;5021303;28;20195;-63
2024/02/28 03:44:15;;;;;;;61.83;31.13;;;4.50;99.90;;;;;;5021549;28;20720;-63
2024/02/28 03:46:41;;;;;;;56.75;30.77;;;4.50;99.90;;;;;;5019329;28;20215;-64
2024/02/28 03:49:07;;;;;;;55.55;30.38;;;4.50;99.90;;;;;;5020931;28;20271;-63
2024/02/28 03:51:38;;;;;;;55.85;30.77;;;4.50;99.90;;;;;;5021310;28;20210;-63
2024/02/28 03:54:05;;;;;;;57.88;32.00;;;4.50;99.90;;;;;;5020984;28;20686;-65
2024/02/28 03:56:30;;;;;;;57.90;31.27;;;4.50;99.90;;;;;;5021195;28;20196;-64
2024/02/28 03:58:56;;;;;;;57.72;30.02;;;4.60;99.90;;;;;;5020682;28;20218;-66
2024/02/28 04:01:22;;;;;;;60.58;32.05;;;4.50;99.90;;;;;;5035834;28;20183;-65
2024/02/28 04:03:47;;;;;;;57.17;31.67;;;4.60;99.90;;;;;;5021239;28;21328;-63
2024/02/28 04:06:13;;;;;;;57.90;32.30;;;4.60;99.90;;;;;;5020366;28;20266;-64
2024/02/28 04:08:41;;;;;;;57.75;31.27;;;4.60;99.90;;;;;;5020887;28;20215;-64
2024/02/28 04:11:07;;;;;;;57.75;31.00;;;4.60;99.90;;;;;;5020154;28;20596;-64
2024/02/28 04:13:33;;;;;;;56.78;31.48;;;4.70;99.90;;;;;;5020598;28;20207;-65
2024/02/28 04:15:58;;;;;;;55.50;30.65;;;4.70;99.90;;;;;;5020744;28;20207;-64
2024/02/28 04:18:24;;;;;;;54.88;30.25;;;4.70;99.90;;;;;;5020169;28;20218;-64
2024/02/28 04:20:50;;;;;;;54.28;30.73;;;4.70;99.90;;;;;;5020326;28;20212;-64
2024/02/28 04:23:17;;;;;;;53.58;29.80;;;4.70;99.90;;;;;;5020586;28;20222;-64
2024/02/28 04:25:42;;;;;;;53.10;29.25;;;4.80;99.90;;;;;;5035512;28;20215;-64
2024/02/28 04:28:11;;;;;;;55.42;29.70;;;4.80;99.90;;;;;;5022722;28;20192;-64
2024/02/28 04:30:37;;;;;;;55.95;30.55;;;4.80;99.90;;;;;;5024030;28;20198;-63
2024/02/28 04:33:03;;;;;;;57.50;30.75;;;4.80;99.90;;;;;;5011576;28;20188;-64
2024/02/28 04:35:28;;;;;;;60.03;31.70;;;4.90;99.90;;;;;;5024464;28;20211;-65
2024/02/28 04:37:54;;;;;;;58.05;30.30;;;4.90;99.90;;;;;;5023534;28;20195;-63
2024/02/28 04:40:20;;;;;;;54.78;29.65;;;4.90;99.90;;;;;;5038964;28;20416;-65
2024/02/28 04:42:45;;;;;;;54.60;30.95;;;4.90;99.90;;;;;;5023937;28;20318;-65
2024/02/28 04:45:11;;;;;;;54.83;28.83;;;5.00;99.90;;;;;;5023710;28;20333;-64
2024/02/28 04:47:37;;;;;;;55.85;31.48;;;5.00;99.90;;;;;;5023470;28;20211;-65
2024/02/28 04:50:07;;;;;;;54.05;30.10;;;5.00;99.90;;;;;;5024241;28;21100;-64
2024/02/28 04:52:33;;;;;;;55.35;30.52;;;5.00;99.90;;;;;;5023845;28;20187;-64
2024/02/28 04:54:59;;;;;;;57.10;30.20;;;5.00;99.90;;;;;;5022207;28;20977;-64
2024/02/28 04:57:25;;;;;;;58.90;30.08;;;5.10;99.90;;;;;;5023392;28;20275;-65
2024/02/28 04:59:50;;;;;;;55.10;30.15;;;5.10;99.90;;;;;;5023110;28;20285;-66
2024/02/28 05:02:16;;;;;;;61.30;30.70;;;5.10;99.90;;;;;;5023796;28;20291;-64
2024/02/28 05:04:42;;;;;;;56.40;30.27;;;5.10;99.90;;;;;;5038624;28;20219;-65
2024/02/28 05:07:08;;;;;;;51.97;29.85;;;5.10;99.90;;;;;;5023174;28;20231;-65
2024/02/28 05:09:35;;;;;;;56.05;31.27;;;5.10;99.90;;;;;;5023218;28;21292;-64
2024/02/28 05:12:01;;;;;;;57.35;31.40;;;5.10;99.90;;;;;;5021896;28;20203;-65
2024/02/28 05:14:27;;;;;;;56.15;30.60;;;5.20;99.90;;;;;;5023349;28;20192;-64
2024/02/28 05:16:52;;;;;;;57.08;31.38;;;5.20;99.90;;;;;;5023197;28;20265;-64
2024/02/28 05:19:18;;;;;;;60.08;31.33;;;5.20;99.90;;;;;;5023039;28;20257;-65
2024/02/28 05:21:45;;;;;;;55.70;30.83;;;5.20;99.90;;;;;;5022304;28;20191;-64
2024/02/28 05:24:11;;;;;;;61.92;31.77;;;5.20;99.90;;;;;;5022471;28;20540;-64
2024/02/28 05:26:37;;;;;;;55.17;29.65;;;5.30;99.90;;;;;;5022745;28;20215;-65
2024/02/28 05:29:04;;;;;;;58.72;31.10;;;5.30;99.90;;;;;;5022309;28;20249;-63
2024/02/28 05:31:34;;;;;;;56.70;30.35;;;5.30;99.90;;;;;;5022543;28;20279;-64
2024/02/28 05:34:01;;;;;;;55.45;30.92;;;5.30;99.90;;;;;;5022460;28;20200;-64
2024/02/28 05:36:29;;;;;;;57.40;30.77;;;5.30;99.90;;;;;;5022373;28;20235;-63
2024/02/28 05:38:56;;;;;;;55.92;30.25;;;5.30;99.90;;;;;;5036667;28;20234;-63
2024/02/28 05:41:23;;;;;;;55.53;30.98;;;5.30;99.90;;;;;;5022606;28;20192;-63
2024/02/28 05:43:49;;;;;;;59.47;32.60;;;5.30;99.90;;;;;;5023076;28;20239;-64
2024/02/28 05:46:16;;;;;;;60.55;31.48;;;5.30;99.90;;;;;;5023231;28;20215;-65
2024/02/28 05:48:43;;;;;;;58.47;32.05;;;5.40;99.90;;;;;;5022801;28;20208;-63
2024/02/28 05:51:10;;;;;;;57.35;32.17;;;5.40;99.90;;;;;;5022822;28;20278;-63
2024/02/28 05:53:36;;;;;;;63.63;37.40;;;5.40;99.90;;;;;;5020232;28;20441;-65
2024/02/28 05:56:02;;;;;;;61.13;33.10;;;5.50;99.90;;;;;;5022069;28;20206;-65
2024/02/28 05:58:28;;;;;;;64.72;33.83;;;5.50;99.90;;;;;;5020028;28;20192;-64
2024/02/28 06:00:54;;;;;;;63.67;33.13;;;5.50;99.90;;;;;;5022273;28;20199;-64
2024/02/28 06:03:20;;;;;;;60.63;33.83;;;5.50;99.90;;;;;;5033868;28;20199;-64
2024/02/28 06:05:46;;;;;;;62.50;33.88;;;5.50;99.90;;;;;;5019435;28;20216;-64
2024/02/28 06:08:12;;;;;;;66.60;33.22;;;5.50;99.90;;;;;;5020767;28;20188;-64
2024/02/28 06:10:38;;;;;;;58.95;33.05;;;5.50;99.90;;;;;;5022161;28;20196;-64
2024/02/28 06:13:04;;;;;;;64.15;33.70;;;5.50;99.90;;;;;;5022026;28;20219;-65
2024/02/28 06:15:30;;;;;;;62.63;32.67;;;5.50;99.90;;;;;;5022272;28;20570;-64
2024/02/28 06:18:00;;;;;;;64.82;32.50;;;5.60;99.90;;;;;;5021825;28;20633;-65
2024/02/28 06:20:26;;;;;;;64.72;34.25;;;5.50;99.90;;;;;;5009692;28;20196;-65
2024/02/28 06:22:52;;;;;;;60.05;32.58;;;5.50;99.90;;;;;;5035168;28;21334;-64
2024/02/28 06:25:19;;;;;;;58.58;33.10;;;5.50;99.90;;;;;;5021377;28;20200;-64
2024/02/28 06:27:46;;;;;;;65.05;32.97;;;5.50;99.90;;;;;;5021371;28;20679;-64
2024/02/28 06:30:12;;;;;;;73.72;33.35;;;5.60;99.90;;;;;;5021294;28;20674;-63
2024/02/28 06:32:38;;;;;;;64.70;32.05;;;5.50;99.90;;;;;;5034666;28;20281;-65
2024/02/28 06:35:05;;;;;;;67.18;33.50;;;5.50;99.90;;;;;;5021927;28;20176;-66
2024/02/28 06:37:31;;;;;;;61.90;32.25;;;5.50;99.90;;;;;;5007831;28;20231;-65
2024/02/28 06:39:57;;;;;;;67.57;34.15;;;5.50;99.90;;;;;;5019732;28;20322;-64
2024/02/28 06:42:22;;;;;;;65.25;32.47;;;5.50;99.90;;;;;;5021435;28;20723;-66
2024/02/28 06:44:48;;;;;;;63.15;33.22;;;5.50;99.90;;;;;;5034495;28;20232;-64
2024/02/28 06:47:14;;;;;;;68.07;33.67;;;5.60;99.90;;;;;;5021191;28;20216;-63
2024/02/28 06:49:39;;;;;;;65.63;33.97;;;5.60;99.90;;;;;;5021178;28;20219;-64
2024/02/28 06:52:05;;;;;;;72.78;34.15;;;5.60;99.90;;;;;;5020993;28;20329;-63
2024/02/28 06:54:31;;;;;;;68.80;34.47;;;5.60;99.90;;;;;;5021331;28;20192;-63
2024/02/28 06:56:57;;;;;;;71.20;34.80;;;5.70;99.90;;;;;;5021282;28;20253;-63
2024/02/28 06:59:23;;;;;;;70.38;33.65;;;5.60;99.90;;;;;;5021490;28;20203;-70
2024/02/28 07:01:49;;;;;;;73.97;34.13;;;5.70;99.90;;;;;;5021073;28;20245;-68
2024/02/28 07:04:14;;;;;;;71.93;33.63;;;5.70;99.90;;;;;;5021664;28;20215;-64
2024/02/28 07:06:40;;;;;;;73.15;33.67;;;5.70;99.90;;;;;;5021197;28;20218;-64
2024/02/28 07:09:09;;;;;;;78.90;33.55;;;5.80;99.90;;;;;;5031784;28;20200;-69
2024/02/28 07:11:35;;;;;;;79.05;35.05;;;5.70;99.90;;;;;;5036371;28;20230;-75
2024/02/28 07:14:04;;;;;;;77.55;33.95;;;5.70;99.90;;;;;;5035818;28;21052;-62
2024/02/28 07:16:30;;;;;;;81.40;34.85;;;5.80;99.90;;;;;;5021236;28;20539;-64
2024/02/28 07:18:56;;;;;;;82.50;34.72;;;5.80;99.90;;;;;;5036160;28;20721;-69
2024/02/28 07:21:22;;;;;;;79.65;34.67;;;5.80;99.90;;;;;;5036238;28;20636;-66
2024/02/28 07:23:48;;;;;;;84.90;35.38;;;5.90;99.90;;;;;;5035867;28;20257;-68
2024/02/28 07:26:15;;;;;;;85.22;35.58;;;5.90;99.90;;;;;;5008039;28;20195;-69
2024/02/28 07:28:41;;;;;;;84.65;35.30;;;6.00;99.90;;;;;;5019033;28;20187;-70
2024/02/28 07:31:07;;;;;;;93.00;42.83;;;6.00;99.90;;;;;;5018860;28;20478;-69
2024/02/28 07:33:32;;;;;;;77.57;38.60;;;6.20;99.90;;;;;;5020306;28;20200;-68
2024/02/28 07:36:00;;;;;;;82.85;37.63;;;6.20;99.90;;;;;;5034951;28;20238;-68
2024/02/28 07:38:27;;;;;;;85.25;35.33;;;6.20;99.90;;;;;;5020168;28;20554;-66
2024/02/28 07:40:53;;;;;;;86.57;37.13;;;6.20;99.90;;;;;;5019505;28;20191;-69
2024/02/28 07:43:19;;;;;;;81.85;36.72;;;6.30;99.90;;;;;;5020216;28;20533;-69
2024/02/28 07:45:45;;;;;;;72.20;36.33;;;6.30;99.90;;;;;;5020227;28;20224;-69
2024/02/28 07:48:10;;;;;;;70.47;34.95;;;6.30;99.90;;;;;;5020447;28;20199;-67
2024/02/28 07:50:37;;;;;;;65.07;34.00;;;6.40;99.90;;;;;;5020671;28;20192;-63
2024/02/28 07:53:04;;;;;;;70.40;34.75;;;6.40;99.90;;;;;;5020987;28;20199;-63
2024/02/28 07:55:30;;;;;;;71.22;34.17;;;6.40;99.90;;;;;;5020464;28;20381;-63
2024/02/28 07:57:56;;;;;;;57.60;32.92;;;6.50;99.90;;;;;;5006863;28;20854;-63
2024/02/28 08:00:22;;;;;;;64.85;33.20;;;6.60;99.90;;;;;;5034374;28;20275;-65
2024/02/28 08:02:47;;;;;;;62.35;34.08;;;6.60;99.90;;;;;;5021937;28;20184;-64
2024/02/28 08:05:14;;;;;;;66.47;34.10;;;6.60;99.90;;;;;;5024321;28;20183;-63
2024/02/28 08:07:41;;;;;;;62.88;33.40;;;6.70;99.90;;;;;;5024670;28;20265;-63
2024/02/28 08:10:09;;;;;;;59.47;32.05;;;6.80;99.90;;;;;;5023700;28;20554;-69
2024/02/28 08:12:36;;;;;;;66.30;33.53;;;6.80;99.90;;;;;;5023190;28;20633;-63
2024/02/28 08:15:02;;;;;;;62.78;33.30;;;6.90;99.90;;;;;;5022716;28;20199;-64
2024/02/28 08:17:28;;;;;;;58.47;32.47;;;6.90;99.90;;;;;;5011347;28;20215;-64
2024/02/28 08:19:54;;;;;;;60.35;32.20;;;6.90;99.90;;;;;;5022590;28;21314;-70
2024/02/28 08:22:20;;;;;;;59.80;31.17;;;7.00;99.90;;;;;;5029640;28;21336;-68
2024/02/28 08:24:45;;;;;;;58.38;32.05;;;7.00;99.90;;;;;;5023695;28;20223;-69
2024/02/28 08:27:11;;;;;;;61.00;32.55;;;7.10;99.90;;;;;;5037231;28;20222;-66
2024/02/28 08:29:43;;;;;;;54.35;30.95;;;7.10;99.90;;;;;;5036655;28;20629;-69
2024/02/28 08:32:10;;;;;;;55.60;30.25;;;7.20;99.90;;;;;;5021124;28;20565;-72
2024/02/28 08:34:36;;;;;;;55.92;31.30;;;7.30;99.90;;;;;;5039125;28;20222;-71
2024/02/28 08:37:02;;;;;;;55.70;30.20;;;7.30;99.90;;;;;;5023129;28;20192;-70
2024/02/28 08:39:28;;;;;;;56.65;31.40;;;7.40;99.90;;;;;;5023082;28;20601;-70
2024/02/28 08:41:53;;;;;;;53.65;31.20;;;7.40;99.90;;;;;;5022882;28;20194;-70
2024/02/28 08:44:20;;;;;;;53.20;30.92;;;7.50;99.90;;;;;;5023913;28;20240;-68
2024/02/28 08:46:49;;;;;;;54.75;30.95;;;7.50;99.90;;;;;;5022622;28;20653;-72
2024/02/28 08:49:15;;;;;;;52.13;29.77;;;7.60;99.90;;;;;;5022108;28;20196;-70
2024/02/28 08:51:40;;;;;;;51.40;30.67;;;7.60;99.90;;;;;;5023270;28;20195;-69
2024/02/28 08:54:06;;;;;;;53.20;29.73;;;7.60;99.90;;;;;;5038460;28;20223;-70
2024/02/28 08:56:32;;;;;;;51.75;30.20;;;7.70;99.90;;;;;;5023301;28;20318;-70
2024/02/28 08:58:59;;;;;;;53.08;29.92;;;7.70;99.90;;;;;;5023007;28;20206;-72
2024/02/28 09:01:25;;;;;;;51.65;30.23;;;7.80;99.90;;;;;;5038442;28;20262;-70
2024/02/28 09:03:51;;;;;;;53.28;29.75;;;7.80;99.90;;;;;;5023398;28;20192;-68
2024/02/28 09:06:16;;;;;;;52.03;29.23;;;7.90;99.90;;;;;;5023320;28;20215;-69
2024/02/28 09:08:42;;;;;;;50.75;29.15;;;7.90;99.90;;;;;;5023019;28;20282;-70
2024/02/28 09:11:08;;;;;;;49.50;29.60;;;8.00;99.90;;;;;;5035960;28;20275;-68
2024/02/28 09:13:35;;;;;;;51.30;29.83;;;8.00;99.90;;;;;;5022941;28;20184;-71
2024/02/28 09:16:01;;;;;;;61.63;30.42;;;8.00;99.90;;;;;;5022883;28;20544;-69
2024/02/28 09:18:27;;;;;;;54.45;30.90;;;8.10;99.90;;;;;;5022890;28;20222;-73
2024/02/28 09:20:53;;;;;;;54.70;29.70;;;8.10;99.90;;;;;;5022501;28;20227;-70
2024/02/28 09:23:19;;;;;;;55.28;30.05;;;8.10;99.90;;;;;;5021350;28;20234;-70
2024/02/28 09:25:45;;;;;;;49.38;29.95;;;8.20;99.90;;;;;;5022981;28;20187;-69
2024/02/28 09:28:13;;;;;;;51.50;29.30;;;8.20;99.90;;;;;;5022203;28;20547;-69
2024/02/28 09:30:39;;;;;;;53.40;29.30;;;8.20;99.90;;;;;;5011487;28;20196;-71
2024/02/28 09:33:05;;;;;;;52.50;29.60;;;8.30;99.90;;;;;;5023085;28;20565;-68
2024/02/28 09:35:31;;;;;;;51.35;29.35;;;8.40;99.90;;;;;;5037678;28;21322;-69
2024/02/28 09:37:57;;;;;;;53.60;30.13;;;8.40;99.90;;;;;;5022247;28;20199;-70
2024/02/28 09:40:23;;;;;;;51.00;30.17;;;8.50;99.90;;;;;;5035486;28;20196;-70
2024/02/28 09:42:53;;;;;;;50.63;29.67;;;8.50;99.90;;;;;;5036335;28;20180;-70
2024/02/28 09:45:21;;;;;;;48.38;28.33;;;8.40;99.90;;;;;;5022123;28;21341;-71
2024/02/28 09:47:47;;;;;;;50.95;29.67;;;8.50;99.90;;;;;;5021882;28;20303;-68
2024/02/28 09:50:14;;;;;;;49.75;30.52;;;8.50;99.90;;;;;;5021618;28;20275;-68
2024/02/28 09:52:40;;;;;;;51.50;29.45;;;8.40;99.90;;;;;;5021804;28;20262;-67
2024/02/28 09:55:06;;;;;;;47.05;29.85;;;8.40;99.90;;;;;;5021306;28;20254;-68
2024/02/28 09:57:34;;;;;;;51.13;30.08;;;8.50;99.90;;;;;;5021598;28;20294;-72
2024/02/28 10:00:00;;;;;;;45.72;28.83;;;8.50;99.90;;;;;;5037287;28;20318;-70
2024/02/28 10:02:28;;;;;;;47.17;30.02;;;8.60;99.90;;;;;;5022186;28;20282;-71
2024/02/28 10:04:57;;;;;;;53.05;28.98;;;8.60;99.90;;;;;;5021917;28;20233;-65
2024/02/28 10:07:23;;;;;;;49.17;28.80;;;8.70;99.90;;;;;;5022547;28;20234;-64
2024/02/28 10:09:48;;;;;;;56.95;31.67;;;8.80;99.90;;;;;;5021725;28;20187;-65
2024/02/28 10:12:14;;;;;;;49.13;30.00;;;8.80;99.90;;;;;;5021021;28;20203;-67
2024/02/28 10:14:40;;;;;;;55.97;31.33;;;8.90;99.90;;;;;;5020232;28;20275;-67
2024/02/28 10:17:08;;;;;;;52.75;29.70;;;9.00;99.90;;;;;;5020743;28;20203;-65
2024/02/28 10:19:33;;;;;;;50.95;29.45;;;9.10;99.90;;;;;;5021483;28;20200;-64
2024/02/28 10:21:59;;;;;;;53.72;32.20;;;9.10;99.90;;;;;;5020608;28;20207;-62
2024/02/28 10:24:25;;;;;;;49.30;29.85;;;9.20;99.90;;;;;;5020724;28;20266;-67
2024/02/28 10:26:57;;;;;;;49.45;29.73;;;9.20;99.90;;;;;;5021028;28;20294;-66
2024/02/28 10:29:24;;;;;;;47.30;29.77;;;9.30;99.90;;;;;;5035910;28;20675;-65
2024/02/28 10:31:51;;;;;;;50.17;30.25;;;9.30;99.90;;;;;;5021300;28;20227;-65
2024/02/28 10:34:18;;;;;;;48.85;29.02;;;9.40;99.90;;;;;;5021075;28;20188;-66
2024/02/28 10:36:45;;;;;;;45.92;29.30;;;9.40;99.90;;;;;;5021427;28;20216;-65
2024/02/28 10:39:11;;;;;;;46.60;28.83;;;9.50;99.90;;;;;;5021494;28;20319;-66
2024/02/28 10:41:41;;;;;;;43.85;28.75;;;9.50;99.90;;;;;;5021793;28;20622;-64
2024/02/28 10:44:08;;;;;;;51.28;30.02;;;9.50;99.90;;;;;;5021104;28;20695;-66
2024/02/28 10:46:34;;;;;;;46.17;28.77;;;9.60;99.90;;;;;;5035462;28;20212;-64
2024/02/28 10:49:00;;;;;;;46.80;28.88;;;9.60;99.90;;;;;;5021634;28;20339;-65
2024/02/28 10:51:26;;;;;;;44.58;28.92;;;9.60;99.90;;;;;;5035833;28;20223;-69
2024/02/28 10:54:12;;;;;;;44.47;26.80;;;9.60;99.90;;;;;;5021028;28;20671;-64
2024/02/28 10:56:43;;;;;;;50.33;29.50;;;9.60;99.90;;;;;;5021097;28;20203;-71
2024/02/28 10:59:11;;;;;;;45.42;28.15;;;9.60;99.90;;;;;;5021155;28;20191;-65
2024/02/28 11:01:44;;;;;;;48.55;28.92;;;9.50;99.90;;;;;;5020098;28;20726;-65
2024/02/28 11:04:16;;;;;;;45.78;28.73;;;9.50;99.90;;;;;;5020814;28;20675;-65
2024/02/28 11:06:53;;;;;;;45.78;28.50;;;9.40;99.90;;;;;;5020609;28;20210;-63
2024/02/28 11:09:22;;;;;;;46.70;29.83;;;9.40;99.90;;;;;;5021029;28;20618;-62
2024/02/28 11:11:50;;;;;;;47.22;28.70;;;9.40;99.90;;;;;;5032937;28;20693;-64
2024/02/28 11:14:16;;;;;;;46.55;28.40;;;9.50;99.90;;;;;;5021106;28;20180;-67
2024/02/28 11:16:45;;;;;;;48.08;29.33;;;9.50;99.90;;;;;;5020761;28;20195;-64
2024/02/28 11:19:21;;;;;;;43.60;28.30;;;9.50;99.90;;;;;;5021371;28;20620;-63
2024/02/28 11:21:55;;;;;;;46.85;28.20;;;9.60;99.90;;;;;;5020904;28;20252;-65
2024/02/28 11:24:28;;;;;;;43.38;26.83;;;9.60;99.90;;;;;;5021246;28;20330;-66
2024/02/28 11:26:54;;;;;;;42.25;27.60;;;9.70;99.90;;;;;;5020590;28;20331;-66
2024/02/28 11:29:28;;;;;;;41.42;27.95;;;9.70;99.90;;;;;;5036030;28;20270;-66
2024/02/28 11:31:55;;;;;;;47.28;28.58;;;9.80;99.90;;;;;;5020782;28;20230;-65
2024/02/28 11:34:21;;;;;;;47.33;29.88;;;9.90;99.90;;;;;;5019628;28;20629;-63
2024/02/28 11:36:49;;;;;;;41.95;27.25;;;9.90;99.90;;;;;;5005287;28;20220;-64
2024/02/28 11:39:15;;;;;;;47.00;27.58;;;10.00;99.90;;;;;;5022558;28;20227;-63
2024/02/28 11:41:41;;;;;;;45.67;26.48;;;10.00;99.90;;;;;;5024930;28;20187;-66
2024/02/28 11:44:07;;;;;;;42.28;26.75;;;10.10;99.90;;;;;;5023927;28;20566;-66
2024/02/28 11:46:33;;;;;;;44.60;27.10;;;10.10;99.90;;;;;;5024648;28;20207;-66
2024/02/28 11:49:01;;;;;;;42.58;27.55;;;10.20;99.90;;;;;;5024664;28;20184;-64
2024/02/28 11:51:26;;;;;;;42.45;26.25;;;10.20;99.90;;;;;;5024287;28;20219;-68
2024/02/28 11:53:52;;;;;;;43.80;26.30;;;10.30;99.90;;;;;;4994487;28;20206;-66
2024/02/28 11:56:21;;;;;;;43.33;27.67;;;10.40;99.90;;;;;;5025232;28;20203;-65
2024/02/28 11:58:53;;;;;;;44.70;27.30;;;10.50;99.90;;;;;;5024886;28;20253;-65
2024/02/28 12:01:46;;;;;;;39.17;25.88;;;10.60;99.90;;;;;;5023585;28;20187;-66
2024/02/28 12:04:12;;;;;;;43.85;26.30;;;10.60;99.90;;;;;;5024700;28;20245;-66
2024/02/28 12:06:39;;;;;;;43.13;27.02;;;10.70;99.90;;;;;;5024365;28;20214;-65
2024/02/28 12:09:14;;;;;;;51.25;31.92;;;10.60;99.90;;;;;;5024162;28;20295;-64
2024/02/28 12:11:40;;;;;;;42.97;28.20;;;10.60;99.90;;;;;;5023872;28;20192;-64
2024/02/28 12:14:09;;;;;;;45.15;27.40;;;10.60;99.90;;;;;;5023058;28;20211;-66
2024/02/28 12:16:39;;;;;;;46.42;29.02;;;10.60;99.90;;;;;;5037039;28;20191;-62
2024/02/28 12:19:09;;;;;;;47.15;29.00;;;10.50;99.90;;;;;;5024474;28;20199;-68
2024/02/28 12:21:36;;;;;;;47.60;29.65;;;10.50;99.90;;;;;;5024201;28;20310;-64
2024/02/28 12:24:02;;;;;;;47.50;28.30;;;10.50;99.90;;;;;;5023813;28;20306;-64
2024/02/28 12:26:30;;;;;;;52.47;30.55;;;10.50;99.90;;;;;;5022402;28;20246;-66
2024/02/28 12:28:56;;;;;;;46.03;29.83;;;10.50;99.90;;;;;;5024010;28;20212;-66
2024/02/28 12:31:21;;;;;;;45.20;30.02;;;10.50;99.90;;;;;;5036421;28;20227;-64